Aromas, California
Current Conditions -  °F | °C
As of 6:53 AM on Monday 24 Nov 2014 (Local Time) from KWVI Reporting Station
Clear Clear  
Wind Chill: 40°   Ceiling: Unl
Heat Index: 43°   Visibility: 10mi
Dew Point: 39°   Wind: 5mph
Humidity: 86%   Direction: 290°WNW
Pressure: 30.35"   Gusts: NA
Location:  36.88°N, 121.64°W
Report Text: KWVI 241453Z AUTO 29004KT 10SM CLR 06/04 A3035 RMK AO2 SLP276 T00610039 53015
Loading
Personal Weather Stations






























Interactive Weather Map New forecast layout! Learn more

10-Day Weather Forecast

Advertisements
Track Severe Weather on mobile